createdAt,value
2018-08-17T00:00:54.619Z,2.50
2018-08-17T00:05:57.194Z,4.77
2018-08-17T00:10:59.880Z,3.97
2018-08-17T00:16:02.458Z,2.60
2018-08-17T00:21:05.051Z,3.30
2018-08-17T00:26:07.770Z,2.67
2018-08-17T00:31:10.282Z,1.90
2018-08-17T00:36:12.947Z,3.87
2018-08-17T00:41:15.490Z,1.97
2018-08-17T00:46:18.170Z,3.53
2018-08-17T00:51:20.782Z,2.50
2018-08-17T00:56:23.319Z,2.80
2018-08-17T01:01:25.842Z,3.00
2018-08-17T01:06:28.380Z,2.77
2018-08-17T01:11:30.898Z,3.53
2018-08-17T01:16:33.455Z,3.57
2018-08-17T01:21:36.076Z,5.73
2018-08-17T01:26:38.593Z,6.53
2018-08-17T01:31:41.245Z,2.60
2018-08-17T01:36:43.850Z,3.00
2018-08-17T01:41:46.425Z,2.60
2018-08-17T01:46:48.964Z,2.97
2018-08-17T01:51:51.650Z,2.90
2018-08-17T01:56:54.164Z,2.67
2018-08-17T02:01:56.703Z,3.17
2018-08-17T02:06:59.239Z,2.90
2018-08-17T02:12:02.646Z,2.40
2018-08-17T02:17:05.204Z,3.07
2018-08-17T02:22:07.781Z,2.60
2018-08-17T02:27:10.318Z,2.57
2018-08-17T02:32:12.827Z,2.87
2018-08-17T02:37:15.345Z,3.17
2018-08-17T02:42:17.884Z,4.10
2018-08-17T02:47:20.412Z,2.60
2018-08-17T02:52:22.965Z,3.13
2018-08-17T02:57:25.660Z,4.77
2018-08-17T03:02:28.195Z,3.13
2018-08-17T03:07:30.710Z,3.10
2018-08-17T03:12:33.236Z,3.47
2018-08-17T03:17:35.789Z,6.73
2018-08-17T03:22:38.380Z,4.17
2018-08-17T03:27:40.965Z,3.07
2018-08-17T03:32:43.545Z,3.30
2018-08-17T03:37:46.079Z,3.47
2018-08-17T03:42:48.594Z,2.90
2018-08-17T03:47:51.154Z,3.20
2018-08-17T03:52:53.673Z,2.77
2018-08-17T03:57:56.225Z,3.07
2018-08-17T04:02:58.827Z,3.20
2018-08-17T04:08:01.452Z,3.97
2018-08-17T04:13:04.292Z,2.80
2018-08-17T04:18:08.031Z,4.00
2018-08-17T04:23:10.565Z,5.60
2018-08-17T04:28:13.191Z,3.17
2018-08-17T04:33:15.736Z,3.07
2018-08-17T04:38:18.259Z,3.07
2018-08-17T04:43:20.895Z,7.23
2018-08-17T04:48:23.579Z,4.00
2018-08-17T04:53:29.863Z,4.50
2018-08-17T04:58:32.389Z,4.20
2018-08-17T05:03:34.919Z,5.20
2018-08-17T05:08:37.450Z,7.77
2018-08-17T05:13:39.963Z,4.53
2018-08-17T05:18:42.518Z,4.93
2018-08-17T05:23:45.055Z,7.67
2018-08-17T05:28:47.582Z,5.07
2018-08-17T05:33:50.302Z,6.27
2018-08-17T05:38:53.467Z,4.33
2018-08-17T05:43:56.010Z,5.53
2018-08-17T05:48:58.557Z,4.57
2018-08-17T05:54:01.234Z,5.93
2018-08-17T05:59:03.810Z,6.83
2018-08-17T06:04:08.800Z,7.70
2018-08-17T06:09:11.351Z,4.20
2018-08-17T06:14:14.019Z,8.33
2018-08-17T06:19:17.490Z,5.87
2018-08-17T06:24:20.184Z,5.13
2018-08-17T06:29:22.715Z,6.20
2018-08-17T06:34:25.513Z,6.37
2018-08-17T06:39:28.090Z,10.50
2018-08-17T06:44:30.672Z,9.47
2018-08-17T06:49:36.273Z,7.07
2018-08-17T06:54:38.889Z,6.53
2018-08-17T06:59:41.904Z,4.97
2018-08-17T07:04:45.212Z,3.30
2018-08-17T07:09:47.760Z,6.23
2018-08-17T07:14:50.406Z,7.70
2018-08-17T07:19:53.078Z,5.47
2018-08-17T07:24:55.602Z,6.43
2018-08-17T07:30:01.894Z,3.60
2018-08-17T07:35:06.266Z,9.33
2018-08-17T07:40:08.962Z,4.20
2018-08-17T07:45:11.572Z,3.47
2018-08-17T07:50:16.237Z,7.77
2018-08-17T07:55:18.794Z,4.37
2018-08-17T08:00:21.415Z,4.90
2018-08-17T08:05:23.975Z,3.77
2018-08-17T08:10:29.799Z,4.83
2018-08-17T08:15:32.487Z,8.43
2018-08-17T08:20:37.143Z,14.67
2018-08-17T08:25:40.347Z,7.40
2018-08-17T08:30:43.250Z,5.87
2018-08-17T08:35:46.234Z,3.80
2018-08-17T08:40:48.867Z,6.17
2018-08-17T08:45:51.435Z,3.43
2018-08-17T08:50:53.974Z,3.70
2018-08-17T08:55:56.638Z,3.60
2018-08-17T09:00:59.219Z,3.00
2018-08-17T09:06:01.882Z,2.77
2018-08-17T09:11:04.815Z,6.23
2018-08-17T09:16:07.499Z,2.80
2018-08-17T09:21:10.098Z,4.50
2018-08-17T09:26:12.629Z,2.10
2018-08-17T09:31:15.187Z,5.20
2018-08-17T09:36:17.771Z,2.90
2018-08-17T09:41:20.330Z,3.77
2018-08-17T09:52:19.212Z,3.10
2018-08-17T09:57:21.755Z,3.50
2018-08-17T10:03:28.588Z,3.08
2018-08-17T10:08:36.305Z,2.55
2018-08-17T10:25:31.555Z,3.20
2018-08-17T10:30:34.315Z,3.17
2018-08-17T10:35:36.920Z,2.17
2018-08-17T10:40:39.642Z,2.65
2018-08-17T10:45:42.175Z,2.85
2018-08-17T10:50:44.735Z,2.20
2018-08-17T10:55:47.840Z,2.60
2018-08-17T11:00:50.372Z,4.30
2018-08-17T11:05:52.900Z,7.53
2018-08-17T11:10:55.461Z,2.12
2018-08-17T11:15:58.235Z,2.00
2018-08-17T11:21:00.883Z,2.92
2018-08-17T11:26:03.527Z,3.15
2018-08-17T11:31:06.198Z,2.02
2018-08-17T11:36:08.936Z,2.12
2018-08-17T11:41:12.280Z,3.33
2018-08-17T11:46:14.843Z,1.87
2018-08-17T11:51:17.772Z,2.83
2018-08-17T11:56:20.461Z,2.98
2018-08-17T12:01:26.452Z,3.25
2018-08-17T12:06:29.009Z,2.10
2018-08-17T12:11:31.572Z,2.30
2018-08-17T12:16:34.227Z,2.55
2018-08-17T12:21:36.850Z,2.87
2018-08-17T12:26:54.407Z,2.50
2018-08-17T12:31:57.012Z,3.85
2018-08-17T12:36:59.532Z,4.60
2018-08-17T12:42:03.197Z,2.10
2018-08-17T12:47:05.766Z,3.65
2018-08-17T12:52:09.035Z,2.70
2018-08-17T12:57:11.563Z,4.03
2018-08-17T13:02:14.160Z,2.80
2018-08-17T13:07:16.726Z,3.77
2018-08-17T13:12:19.390Z,2.90
2018-08-17T13:17:22.249Z,5.63
2018-08-17T13:22:24.792Z,2.37
2018-08-17T13:27:27.377Z,3.70
2018-08-17T13:32:29.899Z,3.40
2018-08-17T13:37:32.548Z,4.37
2018-08-17T13:42:35.457Z,3.17
2018-08-17T13:47:38.066Z,5.30
2018-08-17T13:52:40.660Z,4.03
2018-08-17T13:57:43.229Z,4.27
2018-08-17T14:02:45.811Z,3.60
2018-08-17T14:07:48.645Z,4.40
2018-08-17T14:12:51.178Z,9.80
2018-08-17T14:17:53.719Z,4.37
2018-08-17T14:22:56.341Z,4.77
2018-08-17T14:27:58.875Z,3.03
2018-08-17T14:33:01.613Z,3.30
2018-08-17T14:38:04.371Z,3.93
2018-08-17T14:43:06.968Z,5.07
2018-08-17T14:48:09.599Z,5.23
2018-08-17T14:53:12.167Z,6.37
2018-08-17T14:58:14.815Z,3.30
2018-08-17T15:03:17.390Z,5.83
2018-08-17T15:08:19.951Z,4.00
2018-08-17T15:13:22.553Z,6.33
2018-08-17T15:18:25.063Z,5.20
2018-08-17T15:23:28.633Z,4.30
2018-08-17T15:28:31.223Z,8.93
2018-08-17T15:33:33.798Z,3.83
2018-08-17T15:38:36.341Z,3.17
2018-08-17T15:43:38.921Z,4.93
2018-08-17T15:48:48.882Z,4.77
2018-08-17T15:53:51.497Z,3.67
2018-08-17T15:58:54.028Z,4.83
2018-08-17T16:03:56.560Z,3.47
2018-08-17T16:08:59.180Z,4.80
2018-08-17T16:14:01.822Z,6.70
2018-08-17T16:19:04.848Z,4.27
2018-08-17T16:24:07.552Z,3.70
2018-08-17T16:29:10.124Z,2.37
2018-08-17T16:34:12.698Z,3.17
2018-08-17T16:39:16.931Z,2.57
2018-08-17T16:44:19.460Z,2.70
2018-08-17T16:49:22.015Z,2.60
2018-08-17T16:54:24.584Z,2.90
2018-08-17T16:59:27.101Z,2.60
2018-08-17T17:04:35.697Z,3.10
2018-08-17T17:09:38.375Z,3.10
2018-08-17T17:14:41.143Z,4.07
2018-08-17T17:19:43.777Z,3.20
2018-08-17T17:24:46.349Z,2.83
2018-08-17T17:29:48.880Z,4.27
2018-08-17T17:34:51.475Z,3.93
2018-08-17T17:39:53.950Z,4.13
2018-08-17T17:44:56.601Z,4.50
2018-08-17T17:49:59.165Z,3.37
2018-08-17T17:55:04.441Z,3.23
2018-08-17T18:00:07.242Z,3.70
2018-08-17T18:05:09.928Z,5.33
2018-08-17T18:10:12.523Z,5.20
2018-08-17T18:15:15.213Z,5.97
2018-08-17T18:20:17.862Z,3.90
2018-08-17T18:25:20.485Z,4.57
2018-08-17T18:30:23.151Z,6.33
2018-08-17T18:35:25.939Z,5.80
2018-08-17T18:40:28.554Z,4.30
2018-08-17T18:45:31.218Z,8.50
2018-08-17T18:50:33.831Z,4.00
2018-08-17T18:55:37.202Z,3.67
2018-08-17T19:00:40.189Z,6.70
2018-08-17T19:05:43.059Z,4.43
2018-08-17T19:10:45.727Z,4.10
2018-08-17T19:15:55.529Z,7.10
2018-08-17T19:21:08.729Z,3.77
2018-08-17T19:26:11.466Z,4.20
2018-08-17T19:31:14.091Z,3.50
2018-08-17T19:36:16.715Z,7.37
2018-08-17T19:41:20.035Z,4.70
2018-08-17T19:46:22.892Z,5.10
2018-08-17T19:51:25.677Z,3.50
2018-08-17T19:56:28.248Z,4.37
2018-08-17T20:01:30.916Z,4.47
2018-08-17T20:06:33.558Z,5.07
2018-08-17T20:11:36.548Z,5.87
2018-08-17T20:16:39.369Z,5.10
2018-08-17T20:21:41.939Z,4.73
2018-08-17T20:26:44.775Z,6.15
2018-08-17T20:31:47.288Z,6.57
2018-08-17T20:36:52.951Z,5.80
2018-08-17T20:41:55.507Z,5.33
2018-08-17T20:46:58.271Z,6.67
2018-08-17T20:52:02.074Z,5.77
2018-08-17T20:57:04.734Z,5.30
2018-08-17T21:02:07.377Z,7.90
2018-08-17T21:07:09.891Z,8.23
2018-08-17T21:12:12.439Z,6.80
2018-08-17T21:17:15.229Z,8.67
2018-08-17T21:22:17.823Z,6.90
2018-08-17T21:27:20.350Z,6.63
2018-08-17T21:32:24.023Z,7.57
2018-08-17T21:37:27.103Z,8.03
2018-08-17T21:42:29.626Z,8.33
2018-08-17T21:47:32.143Z,9.03
2018-08-17T21:52:34.687Z,7.57
2018-08-17T21:57:37.274Z,8.33
2018-08-17T22:02:39.819Z,8.13
2018-08-17T22:07:42.407Z,10.40
2018-08-17T22:12:44.936Z,8.53
2018-08-17T22:17:47.539Z,8.53
2018-08-17T22:22:50.078Z,9.37
2018-08-17T22:27:52.643Z,9.40
2018-08-17T22:32:55.176Z,8.23
2018-08-17T22:37:57.712Z,7.80
2018-08-17T22:43:00.297Z,9.37
2018-08-17T22:48:03.624Z,8.10
2018-08-17T22:53:06.294Z,8.63
2018-08-17T22:58:09.029Z,9.00
2018-08-17T23:03:11.555Z,8.73
2018-08-17T23:08:14.111Z,10.97
2018-08-17T23:13:16.642Z,10.00
2018-08-17T23:18:19.187Z,10.00
2018-08-17T23:23:21.705Z,10.47
2018-08-17T23:28:24.223Z,10.73
2018-08-17T23:33:26.749Z,10.57
2018-08-17T23:38:29.304Z,9.20
2018-08-17T23:43:31.854Z,12.23
2018-08-17T23:48:34.380Z,12.73
2018-08-17T23:53:36.945Z,9.50
2018-08-17T23:58:39.499Z,11.03
